sensor_id;sensor_type;location;lat;lon;timestamp;P1;durP1;ratioP1;P2;durP2;ratioP2
21420;SDS011;10871;50.144;8.428;2023-08-20T00:00:11;10.35;;;6.53;;
21420;SDS011;10871;50.144;8.428;2023-08-20T00:02:38;13.63;;;6.45;;
21420;SDS011;10871;50.144;8.428;2023-08-20T00:05:07;12.07;;;6.18;;
21420;SDS011;10871;50.144;8.428;2023-08-20T00:07:34;8.95;;;6.32;;
21420;SDS011;10871;50.144;8.428;2023-08-20T00:10:01;11.27;;;6.25;;
21420;SDS011;10871;50.144;8.428;2023-08-20T00:12:29;9.73;;;6.65;;
21420;SDS011;10871;50.144;8.428;2023-08-20T00:14:56;11.18;;;6.60;;
21420;SDS011;10871;50.144;8.428;2023-08-20T00:17:25;10.07;;;6.20;;
21420;SDS011;10871;50.144;8.428;2023-08-20T00:19:53;10.60;;;6.20;;
21420;SDS011;10871;50.144;8.428;2023-08-20T00:22:24;10.93;;;6.95;;
21420;SDS011;10871;50.144;8.428;2023-08-20T00:24:54;9.85;;;6.38;;
21420;SDS011;10871;50.144;8.428;2023-08-20T00:27:21;11.40;;;6.10;;
21420;SDS011;10871;50.144;8.428;2023-08-20T00:29:47;8.32;;;6.32;;
21420;SDS011;10871;50.144;8.428;2023-08-20T00:32:14;8.77;;;6.38;;
21420;SDS011;10871;50.144;8.428;2023-08-20T00:34:41;10.55;;;6.70;;
21420;SDS011;10871;50.144;8.428;2023-08-20T00:37:07;11.88;;;6.95;;
21420;SDS011;10871;50.144;8.428;2023-08-20T00:39:34;7.53;;;6.53;;
21420;SDS011;10871;50.144;8.428;2023-08-20T00:42:00;11.52;;;6.97;;
21420;SDS011;10871;50.144;8.428;2023-08-20T00:44:27;10.77;;;7.32;;
21420;SDS011;10871;50.144;8.428;2023-08-20T00:46:53;9.55;;;6.32;;
21420;SDS011;10871;50.144;8.428;2023-08-20T00:49:19;10.10;;;6.95;;
21420;SDS011;10871;50.144;8.428;2023-08-20T00:51:46;11.98;;;6.50;;
21420;SDS011;10871;50.144;8.428;2023-08-20T00:54:13;11.75;;;6.75;;
21420;SDS011;10871;50.144;8.428;2023-08-20T00:56:39;7.35;;;6.50;;
21420;SDS011;10871;50.144;8.428;2023-08-20T00:59:06;8.73;;;5.90;;
21420;SDS011;10871;50.144;8.428;2023-08-20T01:01:32;8.48;;;6.07;;
21420;SDS011;10871;50.144;8.428;2023-08-20T01:03:59;10.30;;;6.32;;
21420;SDS011;10871;50.144;8.428;2023-08-20T01:08:58;9.13;;;6.63;;
21420;SDS011;10871;50.144;8.428;2023-08-20T01:11:29;9.15;;;5.65;;
21420;SDS011;10871;50.144;8.428;2023-08-20T01:13:57;10.80;;;6.28;;
21420;SDS011;10871;50.144;8.428;2023-08-20T01:16:24;15.48;;;8.15;;
21420;SDS011;10871;50.144;8.428;2023-08-20T01:18:50;11.60;;;6.85;;
21420;SDS011;10871;50.144;8.428;2023-08-20T01:21:29;12.43;;;6.70;;
21420;SDS011;10871;50.144;8.428;2023-08-20T01:28:56;7.25;;;5.95;;
21420;SDS011;10871;50.144;8.428;2023-08-20T01:31:23;10.55;;;6.15;;
21420;SDS011;10871;50.144;8.428;2023-08-20T01:33:51;10.50;;;6.47;;
21420;SDS011;10871;50.144;8.428;2023-08-20T01:36:20;14.32;;;6.07;;
21420;SDS011;10871;50.144;8.428;2023-08-20T01:38:46;14.35;;;6.47;;
21420;SDS011;10871;50.144;8.428;2023-08-20T01:41:12;7.68;;;5.75;;
21420;SDS011;10871;50.144;8.428;2023-08-20T01:43:39;9.30;;;6.68;;
21420;SDS011;10871;50.144;8.428;2023-08-20T01:46:05;9.13;;;6.15;;
21420;SDS011;10871;50.144;8.428;2023-08-20T01:48:31;10.82;;;6.80;;
21420;SDS011;10871;50.144;8.428;2023-08-20T01:50:58;9.80;;;6.43;;
21420;SDS011;10871;50.144;8.428;2023-08-20T01:53:25;11.35;;;6.72;;
21420;SDS011;10871;50.144;8.428;2023-08-20T01:55:51;11.48;;;6.85;;
21420;SDS011;10871;50.144;8.428;2023-08-20T01:58:17;9.43;;;6.43;;
21420;SDS011;10871;50.144;8.428;2023-08-20T02:00:45;11.57;;;6.03;;
21420;SDS011;10871;50.144;8.428;2023-08-20T02:03:12;10.13;;;6.53;;
21420;SDS011;10871;50.144;8.428;2023-08-20T02:05:39;10.07;;;7.20;;
21420;SDS011;10871;50.144;8.428;2023-08-20T02:08:08;8.40;;;5.82;;
21420;SDS011;10871;50.144;8.428;2023-08-20T02:10:35;12.00;;;6.13;;
21420;SDS011;10871;50.144;8.428;2023-08-20T02:13:04;10.50;;;6.60;;
21420;SDS011;10871;50.144;8.428;2023-08-20T02:15:31;15.88;;;6.35;;
21420;SDS011;10871;50.144;8.428;2023-08-20T02:17:58;8.50;;;6.35;;
21420;SDS011;10871;50.144;8.428;2023-08-20T02:20:26;9.48;;;5.72;;
21420;SDS011;10871;50.144;8.428;2023-08-20T02:22:53;9.77;;;6.20;;
21420;SDS011;10871;50.144;8.428;2023-08-20T02:25:19;11.48;;;6.38;;
21420;SDS011;10871;50.144;8.428;2023-08-20T02:27:45;9.13;;;6.15;;
21420;SDS011;10871;50.144;8.428;2023-08-20T02:30:15;10.32;;;6.05;;
21420;SDS011;10871;50.144;8.428;2023-08-20T02:32:43;8.85;;;6.13;;
21420;SDS011;10871;50.144;8.428;2023-08-20T02:35:09;9.70;;;6.20;;
21420;SDS011;10871;50.144;8.428;2023-08-20T02:37:36;11.60;;;6.53;;
21420;SDS011;10871;50.144;8.428;2023-08-20T02:40:03;13.88;;;6.82;;
21420;SDS011;10871;50.144;8.428;2023-08-20T02:42:32;9.38;;;6.20;;
21420;SDS011;10871;50.144;8.428;2023-08-20T02:44:59;12.48;;;6.45;;
21420;SDS011;10871;50.144;8.428;2023-08-20T02:47:25;11.10;;;6.82;;
21420;SDS011;10871;50.144;8.428;2023-08-20T02:49:52;11.35;;;6.63;;
21420;SDS011;10871;50.144;8.428;2023-08-20T02:52:19;10.93;;;6.95;;
21420;SDS011;10871;50.144;8.428;2023-08-20T02:54:45;11.45;;;6.05;;
21420;SDS011;10871;50.144;8.428;2023-08-20T02:57:12;10.50;;;6.70;;
21420;SDS011;10871;50.144;8.428;2023-08-20T02:59:38;16.30;;;7.15;;
21420;SDS011;10871;50.144;8.428;2023-08-20T03:02:05;14.48;;;7.30;;
21420;SDS011;10871;50.144;8.428;2023-08-20T03:04:31;12.55;;;6.40;;
21420;SDS011;10871;50.144;8.428;2023-08-20T03:06:57;10.55;;;6.60;;
21420;SDS011;10871;50.144;8.428;2023-08-20T03:09:24;9.77;;;7.22;;
21420;SDS011;10871;50.144;8.428;2023-08-20T03:11:50;10.50;;;6.78;;
21420;SDS011;10871;50.144;8.428;2023-08-20T03:14:16;12.85;;;7.40;;
21420;SDS011;10871;50.144;8.428;2023-08-20T03:16:43;8.93;;;6.60;;
21420;SDS011;10871;50.144;8.428;2023-08-20T03:19:09;14.25;;;7.05;;
21420;SDS011;10871;50.144;8.428;2023-08-20T03:21:36;10.40;;;6.90;;
21420;SDS011;10871;50.144;8.428;2023-08-20T03:24:02;8.77;;;6.78;;
21420;SDS011;10871;50.144;8.428;2023-08-20T03:26:29;10.57;;;6.88;;
21420;SDS011;10871;50.144;8.428;2023-08-20T03:28:55;13.35;;;6.55;;
21420;SDS011;10871;50.144;8.428;2023-08-20T03:31:22;13.10;;;7.60;;
21420;SDS011;10871;50.144;8.428;2023-08-20T03:33:48;12.23;;;6.75;;
21420;SDS011;10871;50.144;8.428;2023-08-20T03:36:15;11.35;;;7.35;;
21420;SDS011;10871;50.144;8.428;2023-08-20T03:38:42;11.13;;;6.93;;
21420;SDS011;10871;50.144;8.428;2023-08-20T03:41:08;12.20;;;7.32;;
21420;SDS011;10871;50.144;8.428;2023-08-20T03:43:35;10.88;;;7.60;;
21420;SDS011;10871;50.144;8.428;2023-08-20T03:46:01;13.82;;;7.57;;
21420;SDS011;10871;50.144;8.428;2023-08-20T03:48:28;15.90;;;6.80;;
21420;SDS011;10871;50.144;8.428;2023-08-20T03:50:55;9.98;;;7.45;;
21420;SDS011;10871;50.144;8.428;2023-08-20T03:53:21;12.43;;;7.18;;
21420;SDS011;10871;50.144;8.428;2023-08-20T03:55:48;11.13;;;7.38;;
21420;SDS011;10871;50.144;8.428;2023-08-20T03:58:15;11.57;;;7.38;;
21420;SDS011;10871;50.144;8.428;2023-08-20T04:00:41;10.88;;;7.90;;
21420;SDS011;10871;50.144;8.428;2023-08-20T04:03:08;14.13;;;8.80;;
21420;SDS011;10871;50.144;8.428;2023-08-20T04:05:37;11.43;;;8.82;;
21420;SDS011;10871;50.144;8.428;2023-08-20T04:08:04;11.48;;;7.90;;
21420;SDS011;10871;50.144;8.428;2023-08-20T04:10:30;10.70;;;8.18;;
21420;SDS011;10871;50.144;8.428;2023-08-20T04:12:58;14.55;;;8.00;;
21420;SDS011;10871;50.144;8.428;2023-08-20T04:15:24;11.73;;;8.00;;
21420;SDS011;10871;50.144;8.428;2023-08-20T04:17:51;14.48;;;7.85;;
21420;SDS011;10871;50.144;8.428;2023-08-20T04:20:17;10.48;;;8.10;;
21420;SDS011;10871;50.144;8.428;2023-08-20T04:22:44;8.55;;;7.47;;
21420;SDS011;10871;50.144;8.428;2023-08-20T04:25:10;10.60;;;7.82;;
21420;SDS011;10871;50.144;8.428;2023-08-20T04:27:37;10.63;;;7.78;;
21420;SDS011;10871;50.144;8.428;2023-08-20T04:30:05;10.85;;;8.82;;
21420;SDS011;10871;50.144;8.428;2023-08-20T04:32:31;10.55;;;8.57;;
21420;SDS011;10871;50.144;8.428;2023-08-20T04:34:58;8.90;;;7.85;;
21420;SDS011;10871;50.144;8.428;2023-08-20T04:37:25;12.60;;;7.63;;
21420;SDS011;10871;50.144;8.428;2023-08-20T04:39:52;9.65;;;7.63;;
21420;SDS011;10871;50.144;8.428;2023-08-20T04:42:18;9.23;;;7.78;;
21420;SDS011;10871;50.144;8.428;2023-08-20T04:44:45;10.55;;;7.95;;
21420;SDS011;10871;50.144;8.428;2023-08-20T04:47:11;17.25;;;8.35;;
21420;SDS011;10871;50.144;8.428;2023-08-20T04:49:39;14.43;;;8.27;;
21420;SDS011;10871;50.144;8.428;2023-08-20T04:52:05;12.20;;;8.43;;
21420;SDS011;10871;50.144;8.428;2023-08-20T04:54:32;14.00;;;8.20;;
21420;SDS011;10871;50.144;8.428;2023-08-20T04:56:58;12.55;;;8.25;;
21420;SDS011;10871;50.144;8.428;2023-08-20T04:59:25;12.73;;;8.75;;
21420;SDS011;10871;50.144;8.428;2023-08-20T05:01:52;11.10;;;9.00;;
21420;SDS011;10871;50.144;8.428;2023-08-20T05:04:33;11.65;;;7.93;;
21420;SDS011;10871;50.144;8.428;2023-08-20T05:07:00;14.88;;;8.48;;
21420;SDS011;10871;50.144;8.428;2023-08-20T05:09:28;11.73;;;7.95;;
21420;SDS011;10871;50.144;8.428;2023-08-20T05:11:54;12.30;;;7.93;;
21420;SDS011;10871;50.144;8.428;2023-08-20T05:14:20;12.15;;;8.30;;
21420;SDS011;10871;50.144;8.428;2023-08-20T05:16:47;12.32;;;8.02;;
21420;SDS011;10871;50.144;8.428;2023-08-20T05:19:13;13.75;;;8.18;;
21420;SDS011;10871;50.144;8.428;2023-08-20T05:21:39;13.23;;;7.75;;
21420;SDS011;10871;50.144;8.428;2023-08-20T05:24:06;11.77;;;8.18;;
21420;SDS011;10871;50.144;8.428;2023-08-20T05:26:33;10.50;;;7.90;;
21420;SDS011;10871;50.144;8.428;2023-08-20T05:29:00;11.00;;;8.13;;
21420;SDS011;10871;50.144;8.428;2023-08-20T05:31:26;9.63;;;7.68;;
21420;SDS011;10871;50.144;8.428;2023-08-20T05:33:53;12.27;;;7.97;;
21420;SDS011;10871;50.144;8.428;2023-08-20T05:36:20;15.77;;;8.68;;
21420;SDS011;10871;50.144;8.428;2023-08-20T05:38:47;11.15;;;7.95;;
21420;SDS011;10871;50.144;8.428;2023-08-20T05:41:13;15.73;;;7.50;;
21420;SDS011;10871;50.144;8.428;2023-08-20T05:43:40;10.77;;;7.80;;
21420;SDS011;10871;50.144;8.428;2023-08-20T05:46:06;11.60;;;7.55;;
21420;SDS011;10871;50.144;8.428;2023-08-20T05:48:33;13.30;;;8.05;;
21420;SDS011;10871;50.144;8.428;2023-08-20T05:51:01;15.40;;;8.15;;
21420;SDS011;10871;50.144;8.428;2023-08-20T05:53:28;8.55;;;7.65;;
21420;SDS011;10871;50.144;8.428;2023-08-20T05:55:54;9.65;;;8.10;;
21420;SDS011;10871;50.144;8.428;2023-08-20T05:58:21;8.88;;;7.53;;
21420;SDS011;10871;50.144;8.428;2023-08-20T06:00:47;9.13;;;7.60;;
21420;SDS011;10871;50.144;8.428;2023-08-20T06:03:14;12.40;;;8.07;;
21420;SDS011;10871;50.144;8.428;2023-08-20T06:05:41;9.63;;;7.30;;
21420;SDS011;10871;50.144;8.428;2023-08-20T06:08:07;8.45;;;7.57;;
21420;SDS011;10871;50.144;8.428;2023-08-20T06:10:33;9.68;;;7.50;;
21420;SDS011;10871;50.144;8.428;2023-08-20T06:13:00;8.52;;;7.63;;
21420;SDS011;10871;50.144;8.428;2023-08-20T06:15:26;10.80;;;7.82;;
21420;SDS011;10871;50.144;8.428;2023-08-20T06:17:52;10.93;;;6.75;;
21420;SDS011;10871;50.144;8.428;2023-08-20T06:20:19;11.88;;;7.18;;
21420;SDS011;10871;50.144;8.428;2023-08-20T06:22:45;11.82;;;7.40;;
21420;SDS011;10871;50.144;8.428;2023-08-20T06:25:12;11.77;;;7.32;;
21420;SDS011;10871;50.144;8.428;2023-08-20T06:27:38;8.77;;;7.18;;
21420;SDS011;10871;50.144;8.428;2023-08-20T06:30:05;10.63;;;7.20;;
21420;SDS011;10871;50.144;8.428;2023-08-20T06:32:32;9.23;;;7.20;;
21420;SDS011;10871;50.144;8.428;2023-08-20T06:34:58;9.35;;;7.32;;
21420;SDS011;10871;50.144;8.428;2023-08-20T06:37:24;7.57;;;6.80;;
21420;SDS011;10871;50.144;8.428;2023-08-20T06:39:51;8.80;;;6.75;;
21420;SDS011;10871;50.144;8.428;2023-08-20T06:42:17;8.20;;;7.05;;
21420;SDS011;10871;50.144;8.428;2023-08-20T06:44:44;8.30;;;6.82;;
21420;SDS011;10871;50.144;8.428;2023-08-20T06:47:10;9.05;;;7.20;;
21420;SDS011;10871;50.144;8.428;2023-08-20T06:49:36;9.57;;;6.55;;
21420;SDS011;10871;50.144;8.428;2023-08-20T06:52:03;7.88;;;5.63;;
21420;SDS011;10871;50.144;8.428;2023-08-20T06:54:29;11.68;;;6.30;;
21420;SDS011;10871;50.144;8.428;2023-08-20T06:56:56;7.63;;;5.45;;
21420;SDS011;10871;50.144;8.428;2023-08-20T06:59:22;6.55;;;5.95;;
21420;SDS011;10871;50.144;8.428;2023-08-20T07:01:49;8.02;;;5.85;;
21420;SDS011;10871;50.144;8.428;2023-08-20T07:04:15;7.60;;;5.88;;
21420;SDS011;10871;50.144;8.428;2023-08-20T07:06:42;8.05;;;7.10;;
21420;SDS011;10871;50.144;8.428;2023-08-20T07:09:08;6.15;;;5.55;;
21420;SDS011;10871;50.144;8.428;2023-08-20T07:11:35;5.88;;;5.03;;
21420;SDS011;10871;50.144;8.428;2023-08-20T07:14:01;10.77;;;5.32;;
21420;SDS011;10871;50.144;8.428;2023-08-20T07:16:28;5.55;;;4.40;;
21420;SDS011;10871;50.144;8.428;2023-08-20T07:18:55;5.13;;;4.63;;
21420;SDS011;10871;50.144;8.428;2023-08-20T07:21:21;7.28;;;4.50;;
21420;SDS011;10871;50.144;8.428;2023-08-20T07:23:47;7.32;;;5.93;;
21420;SDS011;10871;50.144;8.428;2023-08-20T07:26:14;4.88;;;4.38;;
21420;SDS011;10871;50.144;8.428;2023-08-20T07:28:41;8.13;;;4.40;;
21420;SDS011;10871;50.144;8.428;2023-08-20T07:31:23;7.05;;;4.57;;
21420;SDS011;10871;50.144;8.428;2023-08-20T07:33:50;6.47;;;5.32;;
21420;SDS011;10871;50.144;8.428;2023-08-20T07:36:17;4.68;;;4.25;;
21420;SDS011;10871;50.144;8.428;2023-08-20T07:38:44;4.38;;;3.55;;
21420;SDS011;10871;50.144;8.428;2023-08-20T07:41:11;5.15;;;4.75;;
21420;SDS011;10871;50.144;8.428;2023-08-20T07:43:38;6.72;;;4.53;;
21420;SDS011;10871;50.144;8.428;2023-08-20T07:46:04;8.43;;;4.28;;
21420;SDS011;10871;50.144;8.428;2023-08-20T07:48:31;7.57;;;4.45;;
21420;SDS011;10871;50.144;8.428;2023-08-20T07:50:57;8.77;;;4.75;;
21420;SDS011;10871;50.144;8.428;2023-08-20T07:53:24;4.55;;;4.15;;
21420;SDS011;10871;50.144;8.428;2023-08-20T07:55:50;6.60;;;4.60;;
21420;SDS011;10871;50.144;8.428;2023-08-20T07:58:16;7.82;;;4.60;;
21420;SDS011;10871;50.144;8.428;2023-08-20T08:00:43;6.60;;;4.68;;
21420;SDS011;10871;50.144;8.428;2023-08-20T08:03:09;5.68;;;4.30;;
21420;SDS011;10871;50.144;8.428;2023-08-20T08:05:36;4.53;;;4.13;;
21420;SDS011;10871;50.144;8.428;2023-08-20T08:08:03;7.25;;;4.30;;
21420;SDS011;10871;50.144;8.428;2023-08-20T08:10:29;6.85;;;4.40;;
21420;SDS011;10871;50.144;8.428;2023-08-20T08:12:56;6.70;;;4.28;;
21420;SDS011;10871;50.144;8.428;2023-08-20T08:15:22;4.47;;;4.07;;
21420;SDS011;10871;50.144;8.428;2023-08-20T08:17:48;6.05;;;4.47;;
21420;SDS011;10871;50.144;8.428;2023-08-20T08:20:15;4.35;;;3.85;;
21420;SDS011;10871;50.144;8.428;2023-08-20T08:22:41;4.80;;;4.20;;
21420;SDS011;10871;50.144;8.428;2023-08-20T08:25:07;8.57;;;4.15;;
21420;SDS011;10871;50.144;8.428;2023-08-20T08:27:34;5.28;;;4.82;;
21420;SDS011;10871;50.144;8.428;2023-08-20T08:30:15;5.25;;;4.75;;
21420;SDS011;10871;50.144;8.428;2023-08-20T08:32:42;6.82;;;4.88;;
21420;SDS011;10871;50.144;8.428;2023-08-20T08:35:08;7.82;;;6.32;;
21420;SDS011;10871;50.144;8.428;2023-08-20T08:37:35;7.10;;;4.75;;
21420;SDS011;10871;50.144;8.428;2023-08-20T08:40:02;6.47;;;5.60;;
21420;SDS011;10871;50.144;8.428;2023-08-20T08:42:32;6.53;;;5.35;;
21420;SDS011;10871;50.144;8.428;2023-08-20T08:45:02;4.80;;;4.30;;
21420;SDS011;10871;50.144;8.428;2023-08-20T08:47:29;5.93;;;5.32;;
21420;SDS011;10871;50.144;8.428;2023-08-20T08:49:55;7.13;;;5.30;;
21420;SDS011;10871;50.144;8.428;2023-08-20T08:52:22;6.45;;;4.90;;
21420;SDS011;10871;50.144;8.428;2023-08-20T08:54:49;7.30;;;6.70;;
21420;SDS011;10871;50.144;8.428;2023-08-20T08:57:15;5.72;;;5.00;;
21420;SDS011;10871;50.144;8.428;2023-08-20T08:59:42;6.80;;;4.82;;
21420;SDS011;10871;50.144;8.428;2023-08-20T09:02:09;7.47;;;5.28;;
21420;SDS011;10871;50.144;8.428;2023-08-20T09:04:42;7.97;;;4.70;;
21420;SDS011;10871;50.144;8.428;2023-08-20T09:07:12;8.48;;;7.78;;
21420;SDS011;10871;50.144;8.428;2023-08-20T09:09:43;8.07;;;5.55;;
21420;SDS011;10871;50.144;8.428;2023-08-20T09:12:13;6.00;;;5.50;;
21420;SDS011;10871;50.144;8.428;2023-08-20T09:14:41;6.70;;;6.03;;
21420;SDS011;10871;50.144;8.428;2023-08-20T09:17:09;8.50;;;6.13;;
21420;SDS011;10871;50.144;8.428;2023-08-20T09:19:36;5.60;;;5.03;;
21420;SDS011;10871;50.144;8.428;2023-08-20T09:22:05;6.47;;;4.97;;
21420;SDS011;10871;50.144;8.428;2023-08-20T09:24:51;5.50;;;4.72;;
21420;SDS011;10871;50.144;8.428;2023-08-20T09:27:17;5.32;;;4.93;;
21420;SDS011;10871;50.144;8.428;2023-08-20T09:29:44;5.38;;;4.88;;
21420;SDS011;10871;50.144;8.428;2023-08-20T09:32:18;5.65;;;4.90;;
21420;SDS011;10871;50.144;8.428;2023-08-20T09:34:45;6.05;;;5.25;;
21420;SDS011;10871;50.144;8.428;2023-08-20T09:37:13;7.65;;;5.20;;
21420;SDS011;10871;50.144;8.428;2023-08-20T09:39:40;5.43;;;4.95;;
21420;SDS011;10871;50.144;8.428;2023-08-20T09:42:07;5.78;;;5.20;;
21420;SDS011;10871;50.144;8.428;2023-08-20T09:44:34;6.22;;;5.00;;
21420;SDS011;10871;50.144;8.428;2023-08-20T09:47:22;6.38;;;4.80;;
21420;SDS011;10871;50.144;8.428;2023-08-20T09:49:50;5.40;;;4.90;;
21420;SDS011;10871;50.144;8.428;2023-08-20T09:57:30;6.55;;;5.85;;
21420;SDS011;10871;50.144;8.428;2023-08-20T09:59:58;6.30;;;5.70;;
21420;SDS011;10871;50.144;8.428;2023-08-20T10:02:25;8.30;;;5.80;;
21420;SDS011;10871;50.144;8.428;2023-08-20T10:04:52;6.50;;;5.70;;
21420;SDS011;10871;50.144;8.428;2023-08-20T10:07:18;9.30;;;6.50;;
21420;SDS011;10871;50.144;8.428;2023-08-20T10:09:45;8.10;;;6.50;;
21420;SDS011;10871;50.144;8.428;2023-08-20T10:12:15;7.10;;;6.40;;
21420;SDS011;10871;50.144;8.428;2023-08-20T10:14:41;6.72;;;6.07;;
21420;SDS011;10871;50.144;8.428;2023-08-20T10:17:08;7.75;;;6.30;;
21420;SDS011;10871;50.144;8.428;2023-08-20T10:19:36;8.88;;;5.78;;
21420;SDS011;10871;50.144;8.428;2023-08-20T10:22:03;8.27;;;6.25;;
21420;SDS011;10871;50.144;8.428;2023-08-20T10:24:39;7.05;;;6.35;;
21420;SDS011;10871;50.144;8.428;2023-08-20T10:27:09;6.70;;;5.90;;
21420;SDS011;10871;50.144;8.428;2023-08-20T10:29:37;9.23;;;6.72;;
21420;SDS011;10871;50.144;8.428;2023-08-20T10:32:05;7.47;;;6.72;;
21420;SDS011;10871;50.144;8.428;2023-08-20T10:34:32;8.75;;;6.47;;
21420;SDS011;10871;50.144;8.428;2023-08-20T10:37:10;8.65;;;5.88;;
21420;SDS011;10871;50.144;8.428;2023-08-20T10:39:37;6.95;;;6.25;;
21420;SDS011;10871;50.144;8.428;2023-08-20T10:44:58;7.75;;;6.13;;
21420;SDS011;10871;50.144;8.428;2023-08-20T10:47:41;8.02;;;6.82;;
21420;SDS011;10871;50.144;8.428;2023-08-20T10:50:08;7.75;;;6.13;;
21420;SDS011;10871;50.144;8.428;2023-08-20T10:52:40;7.90;;;6.65;;
21420;SDS011;10871;50.144;8.428;2023-08-20T10:55:08;7.55;;;6.60;;
21420;SDS011;10871;50.144;8.428;2023-08-20T10:57:36;7.43;;;6.50;;
21420;SDS011;10871;50.144;8.428;2023-08-20T11:00:04;7.05;;;6.35;;
21420;SDS011;10871;50.144;8.428;2023-08-20T11:05:04;8.98;;;6.72;;
21420;SDS011;10871;50.144;8.428;2023-08-20T11:07:31;8.50;;;6.82;;
21420;SDS011;10871;50.144;8.428;2023-08-20T11:09:58;7.82;;;6.40;;
21420;SDS011;10871;50.144;8.428;2023-08-20T11:12:24;10.93;;;6.65;;
21420;SDS011;10871;50.144;8.428;2023-08-20T11:14:50;8.77;;;6.68;;
21420;SDS011;10871;50.144;8.428;2023-08-20T11:17:17;7.57;;;6.05;;
21420;SDS011;10871;50.144;8.428;2023-08-20T11:19:43;8.15;;;6.80;;
21420;SDS011;10871;50.144;8.428;2023-08-20T11:22:17;7.88;;;7.00;;
21420;SDS011;10871;50.144;8.428;2023-08-20T11:24:44;8.25;;;6.88;;
21420;SDS011;10871;50.144;8.428;2023-08-20T11:27:11;7.97;;;6.70;;
21420;SDS011;10871;50.144;8.428;2023-08-20T11:29:41;8.35;;;6.85;;
21420;SDS011;10871;50.144;8.428;2023-08-20T11:32:08;8.73;;;6.85;;
21420;SDS011;10871;50.144;8.428;2023-08-20T11:34:35;7.50;;;6.80;;
21420;SDS011;10871;50.144;8.428;2023-08-20T11:37:04;8.13;;;6.85;;
21420;SDS011;10871;50.144;8.428;2023-08-20T11:39:31;8.65;;;6.60;;
21420;SDS011;10871;50.144;8.428;2023-08-20T11:41:57;8.50;;;6.95;;
21420;SDS011;10871;50.144;8.428;2023-08-20T11:44:24;8.10;;;6.30;;
21420;SDS011;10871;50.144;8.428;2023-08-20T11:46:52;9.80;;;6.65;;
21420;SDS011;10871;50.144;8.428;2023-08-20T11:49:26;7.20;;;6.50;;
21420;SDS011;10871;50.144;8.428;2023-08-20T11:51:52;7.50;;;6.53;;
21420;SDS011;10871;50.144;8.428;2023-08-20T11:54:21;7.82;;;7.03;;
21420;SDS011;10871;50.144;8.428;2023-08-20T11:56:49;8.82;;;7.30;;
21420;SDS011;10871;50.144;8.428;2023-08-20T11:59:17;10.18;;;6.90;;
21420;SDS011;10871;50.144;8.428;2023-08-20T12:01:51;7.32;;;6.63;;
21420;SDS011;10871;50.144;8.428;2023-08-20T12:04:17;8.63;;;6.25;;
21420;SDS011;10871;50.144;8.428;2023-08-20T12:06:44;8.50;;;6.43;;
21420;SDS011;10871;50.144;8.428;2023-08-20T12:09:20;8.90;;;6.68;;
21420;SDS011;10871;50.144;8.428;2023-08-20T12:14:13;8.00;;;6.15;;
21420;SDS011;10871;50.144;8.428;2023-08-20T12:16:39;9.50;;;6.07;;
21420;SDS011;10871;50.144;8.428;2023-08-20T12:19:06;17.00;;;6.28;;
21420;SDS011;10871;50.144;8.428;2023-08-20T12:21:32;8.38;;;6.00;;
21420;SDS011;10871;50.144;8.428;2023-08-20T12:23:59;8.45;;;5.95;;
21420;SDS011;10871;50.144;8.428;2023-08-20T12:26:25;6.40;;;5.60;;
21420;SDS011;10871;50.144;8.428;2023-08-20T12:28:51;8.10;;;5.60;;
21420;SDS011;10871;50.144;8.428;2023-08-20T12:31:18;7.80;;;5.88;;
21420;SDS011;10871;50.144;8.428;2023-08-20T12:33:44;7.00;;;5.72;;
21420;SDS011;10871;50.144;8.428;2023-08-20T12:36:10;11.50;;;6.05;;
21420;SDS011;10871;50.144;8.428;2023-08-20T12:38:37;10.35;;;6.40;;
21420;SDS011;10871;50.144;8.428;2023-08-20T12:41:03;9.35;;;6.15;;
21420;SDS011;10871;50.144;8.428;2023-08-20T12:43:31;6.95;;;6.13;;
21420;SDS011;10871;50.144;8.428;2023-08-20T12:45:57;7.97;;;6.07;;
21420;SDS011;10871;50.144;8.428;2023-08-20T12:48:24;9.25;;;5.57;;
21420;SDS011;10871;50.144;8.428;2023-08-20T12:50:50;9.75;;;6.28;;
21420;SDS011;10871;50.144;8.428;2023-08-20T12:53:17;6.85;;;5.82;;
21420;SDS011;10871;50.144;8.428;2023-08-20T12:55:43;7.03;;;6.07;;
21420;SDS011;10871;50.144;8.428;2023-08-20T12:58:09;5.97;;;5.30;;
21420;SDS011;10871;50.144;8.428;2023-08-20T13:00:36;11.52;;;5.50;;
21420;SDS011;10871;50.144;8.428;2023-08-20T13:03:02;13.90;;;6.72;;
21420;SDS011;10871;50.144;8.428;2023-08-20T13:05:29;9.10;;;5.95;;
21420;SDS011;10871;50.144;8.428;2023-08-20T13:07:56;6.50;;;5.90;;
21420;SDS011;10871;50.144;8.428;2023-08-20T13:10:23;6.60;;;6.03;;
21420;SDS011;10871;50.144;8.428;2023-08-20T13:12:50;7.10;;;5.70;;
21420;SDS011;10871;50.144;8.428;2023-08-20T13:15:17;7.53;;;5.90;;
21420;SDS011;10871;50.144;8.428;2023-08-20T13:17:47;7.03;;;5.43;;
21420;SDS011;10871;50.144;8.428;2023-08-20T13:20:14;6.43;;;5.20;;
21420;SDS011;10871;50.144;8.428;2023-08-20T13:22:41;7.57;;;5.53;;
21420;SDS011;10871;50.144;8.428;2023-08-20T13:25:09;6.32;;;4.95;;
21420;SDS011;10871;50.144;8.428;2023-08-20T13:27:35;5.53;;;5.03;;
21420;SDS011;10871;50.144;8.428;2023-08-20T13:30:02;7.15;;;4.70;;
21420;SDS011;10871;50.144;8.428;2023-08-20T13:32:29;9.00;;;4.90;;
21420;SDS011;10871;50.144;8.428;2023-08-20T13:34:55;6.25;;;4.63;;
21420;SDS011;10871;50.144;8.428;2023-08-20T13:37:22;5.07;;;4.25;;
21420;SDS011;10871;50.144;8.428;2023-08-20T13:39:48;6.10;;;4.40;;
21420;SDS011;10871;50.144;8.428;2023-08-20T13:42:15;6.50;;;4.60;;
21420;SDS011;10871;50.144;8.428;2023-08-20T13:44:42;5.65;;;4.35;;
21420;SDS011;10871;50.144;8.428;2023-08-20T13:47:08;6.88;;;4.35;;
21420;SDS011;10871;50.144;8.428;2023-08-20T13:49:34;6.18;;;4.10;;
21420;SDS011;10871;50.144;8.428;2023-08-20T13:52:01;4.80;;;4.05;;
21420;SDS011;10871;50.144;8.428;2023-08-20T13:54:27;5.25;;;4.05;;
21420;SDS011;10871;50.144;8.428;2023-08-20T13:56:54;5.40;;;4.68;;
21420;SDS011;10871;50.144;8.428;2023-08-20T13:59:20;5.47;;;4.30;;
21420;SDS011;10871;50.144;8.428;2023-08-20T14:01:46;8.18;;;4.50;;
21420;SDS011;10871;50.144;8.428;2023-08-20T14:04:13;9.77;;;5.18;;
21420;SDS011;10871;50.144;8.428;2023-08-20T14:06:43;6.80;;;4.95;;
21420;SDS011;10871;50.144;8.428;2023-08-20T14:09:09;5.85;;;4.88;;
21420;SDS011;10871;50.144;8.428;2023-08-20T14:11:36;6.57;;;5.60;;
21420;SDS011;10871;50.144;8.428;2023-08-20T14:14:02;5.63;;;5.10;;
21420;SDS011;10871;50.144;8.428;2023-08-20T14:16:28;5.50;;;4.70;;
21420;SDS011;10871;50.144;8.428;2023-08-20T14:18:55;7.22;;;5.20;;
21420;SDS011;10871;50.144;8.428;2023-08-20T14:21:21;7.30;;;5.13;;
21420;SDS011;10871;50.144;8.428;2023-08-20T14:23:47;10.18;;;5.25;;
21420;SDS011;10871;50.144;8.428;2023-08-20T14:26:14;5.80;;;5.03;;
21420;SDS011;10871;50.144;8.428;2023-08-20T14:28:41;6.80;;;4.93;;
21420;SDS011;10871;50.144;8.428;2023-08-20T14:31:09;6.93;;;5.00;;
21420;SDS011;10871;50.144;8.428;2023-08-20T14:33:36;10.30;;;5.35;;
21420;SDS011;10871;50.144;8.428;2023-08-20T14:36:02;6.15;;;4.72;;
21420;SDS011;10871;50.144;8.428;2023-08-20T14:38:29;7.30;;;5.10;;
21420;SDS011;10871;50.144;8.428;2023-08-20T14:40:59;5.55;;;4.88;;
21420;SDS011;10871;50.144;8.428;2023-08-20T14:43:29;6.15;;;4.90;;
21420;SDS011;10871;50.144;8.428;2023-08-20T14:45:56;7.68;;;5.00;;
21420;SDS011;10871;50.144;8.428;2023-08-20T14:48:22;7.80;;;5.00;;
21420;SDS011;10871;50.144;8.428;2023-08-20T14:50:49;8.57;;;5.70;;
21420;SDS011;10871;50.144;8.428;2023-08-20T14:53:16;5.60;;;4.85;;
21420;SDS011;10871;50.144;8.428;2023-08-20T14:55:42;7.80;;;5.55;;
21420;SDS011;10871;50.144;8.428;2023-08-20T14:58:08;5.07;;;4.45;;
21420;SDS011;10871;50.144;8.428;2023-08-20T15:00:35;6.20;;;4.70;;
21420;SDS011;10871;50.144;8.428;2023-08-20T15:03:01;7.13;;;5.10;;